CYDF/YDF METAR and TAF weather

Enter ICAO airport designator
Station Type Date Time Source
CYDF METAR 2018/01/22 11:00 UTC NOAA

CYDF 221100Z 25009KT 5SM -SHSN SCT010 OVC027 M09/M12 A2982 RMK SF3SC5 CVCTV CLD EMBD SLP100


Station Type Date Time Source
CYDF Decoded METAR 2018/01/22 11:00 UTC NOAA

Deer Lake, Nfld., Canada (CYDF) 49-13N 057-24W 22M
Jan 22, 2018 - 06:00 AM EST / 2018.01.22 1100 UTC
Wind: from the WSW (250 degrees) at 10 MPH (9 KT):0
Visibility: 5 mile(s):0
Sky conditions: overcast
Weather: light snow showers
Temperature: 15 F (-9 C)
Windchill: 3 F (-16 C):1
Dew Point: 10 F (-12 C)
Relative Humidity: 78%
Pressure (altimeter): 29.82 in. Hg (1009 hPa)
ob: CYDF 221100Z 25009KT 5SM -SHSN SCT010 OVC027 M09/M12 A2982 RMK SF3SC5 CVCTV CLD EMBD SLP100
cycle: 11

Station Type Date Time Source
CYDF TAF 2018/01/22 08:42 UTC NOAA

TAF CYDF 220738Z 2208/2220 26012G22KT P6SM -SN OVC030
TEMPO 2208/2218 5SM -SN OVC020 PROB30 2208/2212 11/2SM -SHSN BLSN
FM221800 25015G25KT P6SM BKN025
TEMPO 2218/2220 5SM -SHSN BKN020
BECMG 2218/2220 25012G22KT
RMK NXT FCST BY 221400Z


Example: see airport list